createdAt,value
2023-01-23T00:01:57.807Z,102217.00
2023-01-23T00:04:25.961Z,102222.00
2023-01-23T00:06:56.683Z,102221.00
2023-01-23T00:09:24.947Z,102220.40
2023-01-23T00:11:56.257Z,102224.40
2023-01-23T00:14:28.634Z,102224.80
2023-01-23T00:16:57.645Z,102229.40
2023-01-23T00:19:29.293Z,102235.20
2023-01-23T00:22:01.395Z,102235.60
2023-01-23T00:24:33.884Z,102239.20
2023-01-23T00:27:07.367Z,102238.60
2023-01-23T00:29:37.063Z,102248.80
2023-01-23T00:32:10.363Z,102240.60
2023-01-23T00:34:47.918Z,102240.40
2023-01-23T00:37:24.484Z,102239.00
2023-01-23T00:39:56.813Z,102235.60
2023-01-23T00:42:27.693Z,102228.00
2023-01-23T00:45:02.867Z,102232.40
2023-01-23T00:47:31.048Z,102237.20
2023-01-23T00:50:00.376Z,102239.80
2023-01-23T00:52:30.969Z,102242.20
2023-01-23T00:55:00.713Z,102241.20
2023-01-23T00:57:33.692Z,102244.00
2023-01-23T01:00:08.280Z,102252.60
2023-01-23T01:02:37.082Z,102246.00
2023-01-23T01:05:07.636Z,102247.00
2023-01-23T01:07:40.384Z,102253.00
2023-01-23T01:10:12.510Z,102255.20
2023-01-23T01:12:40.931Z,102253.00
2023-01-23T01:15:11.305Z,102254.00
2023-01-23T01:17:43.256Z,102257.00
2023-01-23T01:20:13.031Z,102257.40
2023-01-23T01:22:46.863Z,102265.20
2023-01-23T01:25:14.847Z,102269.60
2023-01-23T01:27:46.031Z,102268.60
2023-01-23T01:30:19.462Z,102262.80
2023-01-23T01:32:50.079Z,102269.20
2023-01-23T01:35:23.238Z,102275.80
2023-01-23T01:37:51.769Z,102282.20
2023-01-23T01:40:33.303Z,102280.80
2023-01-23T01:43:06.181Z,102280.60
2023-01-23T01:46:22.371Z,102280.20
2023-01-23T01:49:17.016Z,102280.80
2023-01-23T01:51:59.631Z,102284.60
2023-01-23T01:54:43.922Z,102288.00
2023-01-23T01:57:29.103Z,102288.20
2023-01-23T02:00:20.564Z,102289.40
2023-01-23T02:02:51.622Z,102295.20
2023-01-23T02:05:35.940Z,102296.60
2023-01-23T02:08:25.223Z,102295.60
2023-01-23T02:10:53.744Z,102292.60
2023-01-23T02:13:39.311Z,102298.20
2023-01-23T02:16:10.259Z,102303.60
2023-01-23T02:18:44.749Z,102305.40
2023-01-23T02:21:14.487Z,102301.60
2023-01-23T02:23:54.589Z,102303.60
2023-01-23T02:26:32.874Z,102303.80
2023-01-23T02:29:00.812Z,102305.40
2023-01-23T02:31:32.874Z,102301.40
2023-01-23T02:34:01.468Z,102302.80
2023-01-23T02:36:33.988Z,102305.60
2023-01-23T02:39:17.342Z,102308.80
2023-01-23T02:41:52.988Z,102318.00
2023-01-23T02:44:29.448Z,102312.80
2023-01-23T02:47:08.071Z,102318.00
2023-01-23T02:49:35.960Z,102315.40
2023-01-23T02:52:06.599Z,102318.00
2023-01-23T02:54:37.936Z,102314.40
2023-01-23T02:57:05.836Z,102313.60
2023-01-23T02:59:52.223Z,102308.00
2023-01-23T03:02:20.275Z,102307.00
2023-01-23T03:04:48.678Z,102304.40
2023-01-23T03:07:16.541Z,102303.60
2023-01-23T03:09:47.848Z,102308.60
2023-01-23T03:12:18.865Z,102313.20
2023-01-23T03:14:46.749Z,102315.20
2023-01-23T03:17:15.983Z,102320.20
2023-01-23T03:19:43.868Z,102319.60
2023-01-23T03:22:11.907Z,102319.60
2023-01-23T03:24:40.620Z,102326.00
2023-01-23T03:27:08.686Z,102329.40
2023-01-23T03:30:01.366Z,102325.80
2023-01-23T03:32:30.865Z,102318.60
2023-01-23T03:34:59.390Z,102318.40
2023-01-23T03:37:27.325Z,102320.60
2023-01-23T03:40:14.445Z,102320.20
2023-01-23T03:42:42.467Z,102325.20
2023-01-23T03:45:11.808Z,102326.20
2023-01-23T03:47:39.953Z,102332.00
2023-01-23T03:50:08.849Z,102339.80
2023-01-23T03:52:38.425Z,102341.00
2023-01-23T03:55:06.811Z,102341.00
2023-01-23T03:57:34.912Z,102349.20
2023-01-23T04:00:13.783Z,102347.80
2023-01-23T04:02:41.698Z,102347.40
2023-01-23T04:05:12.084Z,102346.00
2023-01-23T04:07:40.184Z,102346.60
2023-01-23T04:10:11.446Z,102340.00
2023-01-23T04:12:43.366Z,102339.20
2023-01-23T04:15:11.897Z,102338.00
2023-01-23T04:17:42.258Z,102339.40
2023-01-23T04:20:12.481Z,102344.00
2023-01-23T04:22:41.755Z,102347.60
2023-01-23T04:25:10.207Z,102349.20
2023-01-23T04:27:37.964Z,102352.00
2023-01-23T04:30:07.017Z,102354.20
2023-01-23T04:32:35.538Z,102347.40
2023-01-23T04:35:06.462Z,102363.60
2023-01-23T04:37:36.610Z,102363.60
2023-01-23T04:40:05.321Z,102363.20
2023-01-23T04:42:41.226Z,102364.80
2023-01-23T04:45:12.969Z,102370.80
2023-01-23T04:47:46.655Z,102363.60
2023-01-23T04:50:16.417Z,102365.60
2023-01-23T04:52:46.142Z,102372.40
2023-01-23T04:55:14.480Z,102371.20
2023-01-23T04:57:42.836Z,102372.60
2023-01-23T05:00:16.594Z,102373.00
2023-01-23T05:02:46.672Z,102369.00
2023-01-23T05:05:17.289Z,102367.20
2023-01-23T05:07:45.214Z,102370.60
2023-01-23T05:10:16.975Z,102375.60
2023-01-23T05:12:45.113Z,102378.60
2023-01-23T05:15:12.984Z,102379.00
2023-01-23T05:17:42.038Z,102378.60
2023-01-23T05:20:12.369Z,102378.60
2023-01-23T05:22:52.558Z,102375.00
2023-01-23T05:25:24.841Z,102380.20
2023-01-23T05:27:53.673Z,102383.60
2023-01-23T05:30:23.533Z,102385.40
2023-01-23T05:32:53.464Z,102383.80
2023-01-23T05:35:22.865Z,102387.40
2023-01-23T05:37:52.120Z,102386.80
2023-01-23T05:40:23.465Z,102393.00
2023-01-23T05:43:15.899Z,102387.40
2023-01-23T05:46:03.183Z,102395.20
2023-01-23T05:48:43.737Z,102399.20
2023-01-23T05:51:11.934Z,102403.20
2023-01-23T05:53:39.756Z,102416.40
2023-01-23T05:56:08.738Z,102414.80
2023-01-23T05:58:43.177Z,102421.80
2023-01-23T06:01:31.869Z,102427.40
2023-01-23T06:03:59.713Z,102433.40
2023-01-23T06:06:46.557Z,102439.60
2023-01-23T06:09:14.418Z,102439.40
2023-01-23T06:11:42.209Z,102439.40
2023-01-23T06:14:10.109Z,102439.60
2023-01-23T06:16:38.049Z,102446.20
2023-01-23T06:19:06.129Z,102444.40
2023-01-23T06:21:37.603Z,102452.00
2023-01-23T06:24:06.087Z,102451.80
2023-01-23T06:26:33.890Z,102458.00
2023-01-23T06:29:02.518Z,102456.60
2023-01-23T06:31:32.498Z,102460.00
2023-01-23T06:34:01.565Z,102461.80
2023-01-23T06:36:32.111Z,102466.20
2023-01-23T06:39:00.717Z,102474.80
2023-01-23T06:41:34.263Z,102483.40
2023-01-23T06:44:04.721Z,102485.00
2023-01-23T06:46:32.528Z,102494.80
2023-01-23T06:49:00.296Z,102501.00
2023-01-23T06:51:28.740Z,102505.80
2023-01-23T06:53:57.779Z,102506.80
2023-01-23T06:56:26.454Z,102515.00
2023-01-23T06:58:54.381Z,102514.60
2023-01-23T07:01:26.572Z,102515.40
2023-01-23T07:04:13.008Z,102516.00
2023-01-23T07:06:41.405Z,102512.60
2023-01-23T07:09:09.627Z,102517.60
2023-01-23T07:11:37.548Z,102519.60
2023-01-23T07:14:06.637Z,102519.20
2023-01-23T07:16:36.457Z,102516.20
2023-01-23T07:19:05.401Z,102516.00
2023-01-23T07:21:34.269Z,102517.00
2023-01-23T07:24:05.324Z,102518.40
2023-01-23T07:26:33.259Z,102523.80
2023-01-23T07:29:01.127Z,102533.00
2023-01-23T07:31:28.979Z,102530.00
2023-01-23T07:33:56.902Z,102530.80
2023-01-23T07:36:24.609Z,102532.80
2023-01-23T07:38:52.334Z,102529.60
2023-01-23T07:41:22.997Z,102529.40
2023-01-23T07:43:50.832Z,102529.60
2023-01-23T07:46:18.664Z,102526.60
2023-01-23T07:48:46.866Z,102528.20
2023-01-23T07:51:15.533Z,102523.40
2023-01-23T07:53:43.386Z,102525.60
2023-01-23T07:56:11.273Z,102522.60
2023-01-23T07:58:39.127Z,102528.20
2023-01-23T08:01:09.792Z,102532.60
2023-01-23T08:03:37.773Z,102538.00
2023-01-23T08:06:06.017Z,102542.80
2023-01-23T08:08:33.820Z,102542.40
2023-01-23T08:11:05.509Z,102546.80
2023-01-23T08:13:33.607Z,102545.80
2023-01-23T08:16:01.689Z,102549.60
2023-01-23T08:18:31.211Z,102548.20
2023-01-23T08:21:03.394Z,102549.80
2023-01-23T08:23:34.283Z,102547.40
2023-01-23T08:26:08.647Z,102553.00
2023-01-23T08:28:36.548Z,102555.00
2023-01-23T08:31:07.602Z,102555.00
2023-01-23T08:33:37.814Z,102560.20
2023-01-23T08:36:09.530Z,102561.00
2023-01-23T08:38:39.126Z,102565.80
2023-01-23T08:41:07.049Z,102574.20
2023-01-23T08:43:34.810Z,102572.80
2023-01-23T08:46:02.765Z,102574.20
2023-01-23T08:48:30.548Z,102579.60
2023-01-23T08:51:05.248Z,102583.20
2023-01-23T08:53:34.166Z,102589.00
2023-01-23T08:56:05.882Z,102593.20
2023-01-23T08:58:34.525Z,102598.00
2023-01-23T09:01:05.343Z,102591.20
2023-01-23T09:03:33.833Z,102595.20
2023-01-23T09:06:02.281Z,102591.20
2023-01-23T09:08:30.218Z,102592.40
2023-01-23T09:11:06.264Z,102590.80
2023-01-23T09:13:34.675Z,102589.40
2023-01-23T09:16:03.758Z,102589.20
2023-01-23T09:18:31.936Z,102585.60
2023-01-23T09:20:59.806Z,102580.20
2023-01-23T09:23:27.976Z,102582.00
2023-01-23T09:25:55.749Z,102574.40
2023-01-23T09:28:23.480Z,102572.80
2023-01-23T09:30:51.406Z,102573.60
2023-01-23T09:33:24.934Z,102575.20
2023-01-23T09:35:52.858Z,102575.40
2023-01-23T09:38:20.624Z,102576.40
2023-01-23T09:40:59.728Z,102574.20
2023-01-23T09:44:09.373Z,102569.80
2023-01-23T09:47:02.531Z,102573.00
2023-01-23T09:49:41.425Z,102573.60
2023-01-23T09:52:25.984Z,102571.00
2023-01-23T09:55:04.177Z,102567.00
2023-01-23T09:57:45.317Z,102562.60
2023-01-23T10:00:20.890Z,102569.40
2023-01-23T10:02:49.001Z,102570.80
2023-01-23T10:05:21.176Z,102573.20
2023-01-23T10:08:15.545Z,102569.40
2023-01-23T10:10:56.279Z,102568.60
2023-01-23T10:13:48.796Z,102569.40
2023-01-23T10:16:38.203Z,102567.40
2023-01-23T10:19:44.629Z,102575.60
2023-01-23T10:22:41.735Z,102578.60
2023-01-23T10:25:25.282Z,102575.60
2023-01-23T10:28:00.437Z,102570.40
2023-01-23T10:30:34.739Z,102572.00
2023-01-23T10:33:18.796Z,102568.60
2023-01-23T10:35:56.267Z,102572.00
2023-01-23T10:38:53.286Z,102566.80
2023-01-23T10:41:23.331Z,102568.20
2023-01-23T10:43:54.790Z,102570.20
2023-01-23T10:46:56.297Z,102571.40
2023-01-23T10:49:30.195Z,102570.00
2023-01-23T10:51:58.706Z,102572.00
2023-01-23T10:54:32.300Z,102572.40
2023-01-23T10:57:25.169Z,102567.80
2023-01-23T11:00:05.049Z,102566.80
2023-01-23T11:02:38.189Z,102561.80
2023-01-23T11:05:52.790Z,102562.20
2023-01-23T11:08:36.479Z,102564.20
2023-01-23T11:11:16.493Z,102565.80
2023-01-23T11:13:47.728Z,102567.00
2023-01-23T11:16:23.443Z,102570.20
2023-01-23T11:19:05.113Z,102573.40
2023-01-23T11:21:50.739Z,102575.60
2023-01-23T11:24:39.803Z,102569.60
2023-01-23T11:27:14.506Z,102568.40
2023-01-23T11:30:22.637Z,102571.00
2023-01-23T11:32:59.190Z,102562.00
2023-01-23T11:36:03.110Z,102555.00
2023-01-23T11:38:52.522Z,102549.60
2023-01-23T11:41:32.016Z,102550.00
2023-01-23T11:44:07.885Z,102550.60
2023-01-23T11:46:58.247Z,102545.20
2023-01-23T11:50:02.904Z,102547.00
2023-01-23T11:52:56.314Z,102542.40
2023-01-23T11:55:52.859Z,102539.60
2023-01-23T11:59:02.002Z,102536.80
2023-01-23T12:01:45.280Z,102533.80
2023-01-23T12:04:35.499Z,102533.60
2023-01-23T12:07:24.456Z,102532.00
2023-01-23T12:10:22.103Z,102535.60
2023-01-23T12:13:18.409Z,102532.60
2023-01-23T12:16:15.171Z,102542.00
2023-01-23T12:19:31.626Z,102548.40
2023-01-23T12:22:16.586Z,102545.60
2023-01-23T12:25:18.481Z,102547.40
2023-01-23T12:27:57.998Z,102550.80
2023-01-23T12:30:39.053Z,102551.00
2023-01-23T12:33:19.736Z,102551.20
2023-01-23T12:36:11.949Z,102552.00
2023-01-23T12:39:02.102Z,102553.80
2023-01-23T12:41:37.791Z,102548.80
2023-01-23T12:44:15.522Z,102552.00
2023-01-23T12:47:04.754Z,102557.00
2023-01-23T12:49:44.102Z,102554.20
2023-01-23T12:52:30.053Z,102551.80
2023-01-23T12:55:14.213Z,102546.80
2023-01-23T12:57:59.686Z,102549.20
2023-01-23T13:01:24.259Z,102550.20
2023-01-23T13:04:15.420Z,102553.20
2023-01-23T13:07:04.585Z,102561.40
2023-01-23T13:09:43.931Z,102560.80
2023-01-23T13:12:22.709Z,102573.40
2023-01-23T13:15:18.959Z,102578.00
2023-01-23T13:17:59.563Z,102576.00
2023-01-23T13:21:11.035Z,102575.20
2023-01-23T13:23:38.802Z,102572.60
2023-01-23T13:26:15.688Z,102580.00
2023-01-23T13:28:57.804Z,102583.20
2023-01-23T13:31:47.782Z,102586.60
2023-01-23T13:34:17.186Z,102586.40
2023-01-23T13:36:54.731Z,102586.00
2023-01-23T13:39:28.988Z,102588.80
2023-01-23T13:42:12.495Z,102595.80
2023-01-23T13:45:30.009Z,102589.40
2023-01-23T14:21:27.781Z,102612.60
2023-01-23T14:24:03.665Z,102609.40
2023-01-23T14:26:35.378Z,102613.60
2023-01-23T14:29:22.346Z,102611.00
2023-01-23T14:31:51.362Z,102610.20
2023-01-23T14:34:21.036Z,102610.40
2023-01-23T14:36:54.411Z,102606.40
2023-01-23T14:39:27.501Z,102607.60
2023-01-23T14:42:02.347Z,102611.00
2023-01-23T14:44:46.915Z,102611.20
2023-01-23T14:47:31.095Z,102613.00
2023-01-23T14:50:08.277Z,102610.40
2023-01-23T14:52:36.302Z,102610.00
2023-01-23T14:55:29.233Z,102613.40
2023-01-23T14:58:00.807Z,102610.20
2023-01-23T15:00:30.533Z,102612.20
2023-01-23T15:02:58.656Z,102615.20
2023-01-23T15:05:30.006Z,102614.40
2023-01-23T15:08:16.857Z,102614.00
2023-01-23T15:10:49.100Z,102616.60
2023-01-23T15:13:44.925Z,102616.60
2023-01-23T15:16:26.540Z,102621.80
2023-01-23T15:19:16.637Z,102623.60
2023-01-23T15:21:44.638Z,102622.80
2023-01-23T15:24:12.420Z,102623.60
2023-01-23T15:27:05.931Z,102619.40
2023-01-23T15:29:34.905Z,102615.00
2023-01-23T15:32:03.183Z,102620.40
2023-01-23T15:34:34.284Z,102621.80
2023-01-23T15:37:11.120Z,102625.00
2023-01-23T15:40:05.005Z,102625.20
2023-01-23T15:42:35.443Z,102629.00
2023-01-23T15:45:13.526Z,102629.40
2023-01-23T15:47:41.420Z,102626.80
2023-01-23T15:50:12.915Z,102626.40
2023-01-23T15:52:50.718Z,102629.20
2023-01-23T15:55:20.675Z,102631.40
2023-01-23T15:57:49.018Z,102632.60
2023-01-23T16:00:24.999Z,102629.80
2023-01-23T16:02:57.151Z,102636.00
2023-01-23T16:05:30.581Z,102636.80
2023-01-23T16:08:01.210Z,102638.80
2023-01-23T16:10:33.828Z,102639.20
2023-01-23T16:13:02.288Z,102636.40
2023-01-23T16:15:33.596Z,102640.60
2023-01-23T16:18:04.602Z,102650.00
2023-01-23T16:20:40.448Z,102652.60
2023-01-23T16:23:27.824Z,102647.20
2023-01-23T16:25:57.620Z,102645.40
2023-01-23T16:28:27.064Z,102641.80
2023-01-23T16:30:55.145Z,102644.60
2023-01-23T16:33:23.827Z,102646.80
2023-01-23T16:35:51.873Z,102648.40
2023-01-23T16:38:25.719Z,102644.80
2023-01-23T16:40:55.310Z,102649.40
2023-01-23T16:43:23.297Z,102649.40
2023-01-23T16:45:54.366Z,102646.80
2023-01-23T16:48:28.341Z,102643.00
2023-01-23T16:51:08.285Z,102653.40
2023-01-23T16:53:43.715Z,102645.00
2023-01-23T16:56:26.938Z,102651.20
2023-01-23T16:58:54.752Z,102655.20
2023-01-23T17:01:24.088Z,102658.40
2023-01-23T17:04:03.041Z,102653.60
2023-01-23T17:06:31.905Z,102663.20
2023-01-23T17:08:59.689Z,102662.60
2023-01-23T17:11:37.900Z,102659.60
2023-01-23T17:14:19.857Z,102670.80
2023-01-23T17:16:49.616Z,102667.60
2023-01-23T17:19:33.976Z,102667.40
2023-01-23T17:22:04.248Z,102670.80
2023-01-23T17:24:32.135Z,102667.60
2023-01-23T17:27:00.133Z,102668.40
2023-01-23T17:29:28.331Z,102665.00
2023-01-23T17:31:56.191Z,102669.60
2023-01-23T17:34:45.108Z,102663.00
2023-01-23T17:37:25.702Z,102664.40
2023-01-23T17:39:53.644Z,102665.80
2023-01-23T17:42:22.201Z,102667.60
2023-01-23T17:44:50.614Z,102665.00
2023-01-23T17:47:18.735Z,102661.00
2023-01-23T17:49:57.230Z,102669.60
2023-01-23T17:52:26.767Z,102665.40
2023-01-23T17:54:54.579Z,102670.80
2023-01-23T17:57:22.603Z,102668.20
2023-01-23T17:59:50.581Z,102673.00
2023-01-23T18:02:30.721Z,102676.60
2023-01-23T18:04:59.789Z,102681.00
2023-01-23T18:07:27.680Z,102681.20
2023-01-23T18:09:56.333Z,102677.00
2023-01-23T18:13:08.875Z,102682.00
2023-01-23T18:16:10.633Z,102674.80
2023-01-23T18:18:40.717Z,102670.80
2023-01-23T18:21:17.911Z,102665.60
2023-01-23T18:23:47.161Z,102661.40
2023-01-23T18:26:47.842Z,102662.40
2023-01-23T18:29:42.825Z,102668.80
2023-01-23T18:32:52.359Z,102671.20
2023-01-23T18:35:57.320Z,102673.20
2023-01-23T18:38:43.950Z,102674.00
2023-01-23T18:41:27.377Z,102673.00
2023-01-23T18:44:17.995Z,102672.20
2023-01-23T18:46:46.285Z,102676.00
2023-01-23T18:49:31.755Z,102676.20
2023-01-23T18:52:14.919Z,102672.00
2023-01-23T18:55:31.983Z,102671.00
2023-01-23T18:58:22.842Z,102668.00
2023-01-23T19:01:20.379Z,102664.60
2023-01-23T19:03:50.347Z,102673.60
2023-01-23T19:06:23.778Z,102666.00
2023-01-23T19:08:54.267Z,102668.80
2023-01-23T19:12:00.910Z,102674.40
2023-01-23T19:15:00.755Z,102668.80
2023-01-23T19:18:11.347Z,102669.00
2023-01-23T19:20:54.308Z,102671.80
2023-01-23T19:23:44.905Z,102679.60
2023-01-23T19:26:17.886Z,102685.80
2023-01-23T19:28:46.311Z,102685.60
2023-01-23T19:31:26.414Z,102680.60
2023-01-23T19:33:54.937Z,102679.40
2023-01-23T19:36:26.052Z,102683.40
2023-01-23T19:39:00.856Z,102683.40
2023-01-23T19:41:49.787Z,102683.60
2023-01-23T19:44:22.418Z,102683.60
2023-01-23T19:46:50.823Z,102682.80
2023-01-23T19:49:18.781Z,102677.60
2023-01-23T19:51:47.285Z,102684.60
2023-01-23T19:54:16.208Z,102683.40
2023-01-23T19:56:44.062Z,102691.80
2023-01-23T19:59:11.815Z,102695.80
2023-01-23T20:01:47.367Z,102693.20
2023-01-23T20:04:18.749Z,102693.40
2023-01-23T20:06:49.083Z,102695.20
2023-01-23T20:09:17.672Z,102691.60
2023-01-23T20:11:46.711Z,102694.80
2023-01-23T20:14:14.976Z,102696.40
2023-01-23T20:16:44.609Z,102698.60
2023-01-23T20:19:16.566Z,102696.00
2023-01-23T20:21:47.679Z,102699.60
2023-01-23T20:24:16.668Z,102698.60
2023-01-23T20:26:46.298Z,102700.40
2023-01-23T20:29:14.463Z,102696.00
2023-01-23T20:31:42.494Z,102690.00
2023-01-23T20:34:10.353Z,102693.80
2023-01-23T20:36:38.391Z,102692.60
2023-01-23T20:39:12.775Z,102696.20
2023-01-23T20:41:40.966Z,102693.60
2023-01-23T20:44:09.033Z,102694.20
2023-01-23T20:46:36.887Z,102690.80
2023-01-23T20:49:04.696Z,102694.40
2023-01-23T20:51:32.489Z,102695.80
2023-01-23T20:54:00.368Z,102697.20
2023-01-23T20:56:28.243Z,102701.60
2023-01-23T20:59:15.586Z,102704.60
2023-01-23T21:02:06.194Z,102702.20
2023-01-23T21:04:36.663Z,102697.20
2023-01-23T21:07:05.064Z,102702.20
2023-01-23T21:09:32.910Z,102702.60
2023-01-23T21:12:00.847Z,102701.00
2023-01-23T21:14:29.537Z,102700.60
2023-01-23T21:16:58.444Z,102696.80
2023-01-23T21:19:28.591Z,102705.20
2023-01-23T21:21:56.553Z,102705.00
2023-01-23T21:24:25.819Z,102701.80
2023-01-23T21:26:53.906Z,102703.80
2023-01-23T21:29:21.717Z,102704.60
2023-01-23T21:31:49.888Z,102706.00
2023-01-23T21:34:18.176Z,102703.80
2023-01-23T21:36:46.120Z,102714.00
2023-01-23T21:39:15.647Z,102714.40
2023-01-23T21:41:44.206Z,102713.80
2023-01-23T21:44:13.320Z,102711.80
2023-01-23T21:46:41.581Z,102709.60
2023-01-23T21:49:12.939Z,102709.80
2023-01-23T21:51:40.932Z,102712.20
2023-01-23T21:54:09.273Z,102714.80
2023-01-23T21:56:37.510Z,102715.60
2023-01-23T21:59:06.825Z,102711.40
2023-01-23T22:01:42.597Z,102710.80
2023-01-23T22:04:22.411Z,102706.20
2023-01-23T22:06:58.576Z,102707.80
2023-01-23T22:09:26.726Z,102706.80
2023-01-23T22:11:55.867Z,102701.20
2023-01-23T22:14:24.109Z,102704.40
2023-01-23T22:16:54.903Z,102699.60
2023-01-23T22:19:25.571Z,102704.00
2023-01-23T22:21:55.492Z,102706.60
2023-01-23T22:24:23.505Z,102705.80
2023-01-23T22:26:52.528Z,102706.20
2023-01-23T22:29:20.640Z,102709.20
2023-01-23T22:31:48.886Z,102708.60
2023-01-23T22:34:17.248Z,102712.40
2023-01-23T22:36:45.115Z,102710.00
2023-01-23T22:39:20.162Z,102714.20
2023-01-23T22:41:50.330Z,102707.20
2023-01-23T22:44:18.974Z,102709.40
2023-01-23T22:46:47.044Z,102711.00
2023-01-23T22:49:16.102Z,102713.80
2023-01-23T22:51:44.209Z,102721.80
2023-01-23T22:54:15.117Z,102717.20
2023-01-23T22:56:44.467Z,102720.40
2023-01-23T22:59:12.643Z,102721.60
2023-01-23T23:01:40.598Z,102725.60
2023-01-23T23:04:09.511Z,102722.20
2023-01-23T23:06:37.331Z,102726.60
2023-01-23T23:09:05.591Z,102727.20
2023-01-23T23:11:33.522Z,102725.40
2023-01-23T23:14:02.162Z,102724.80
2023-01-23T23:16:32.114Z,102733.80
2023-01-23T23:19:03.231Z,102734.40
2023-01-23T23:21:36.232Z,102736.40
2023-01-23T23:24:12.214Z,102731.60
2023-01-23T23:26:40.317Z,102734.40
2023-01-23T23:29:08.215Z,102735.60
2023-01-23T23:31:36.368Z,102732.00
2023-01-23T23:34:04.299Z,102729.40
2023-01-23T23:36:32.555Z,102732.00
2023-01-23T23:39:01.009Z,102729.00
2023-01-23T23:41:28.894Z,102727.60
2023-01-23T23:43:59.754Z,102720.60
2023-01-23T23:46:28.024Z,102720.40
2023-01-23T23:48:55.818Z,102720.20
2023-01-23T23:51:23.593Z,102722.60
2023-01-23T23:53:51.390Z,102718.80
2023-01-23T23:56:26.939Z,102720.40
2023-01-23T23:58:56.351Z,102719.80
